createdAt,value
2023-01-17T00:01:29.623Z,1.67
2023-01-17T00:04:16.823Z,1.72
2023-01-17T00:07:02.456Z,1.77
2023-01-17T00:09:50.833Z,1.80
2023-01-17T00:12:18.754Z,1.87
2023-01-17T00:14:47.324Z,1.87
2023-01-17T00:17:15.256Z,1.92
2023-01-17T00:20:02.269Z,1.92
2023-01-17T00:22:48.703Z,1.91
2023-01-17T00:25:35.542Z,1.95
2023-01-17T00:28:03.675Z,1.94
2023-01-17T00:30:30.899Z,1.91
2023-01-17T00:32:57.648Z,1.92
2023-01-17T00:35:26.905Z,1.93
2023-01-17T00:38:03.973Z,1.90
2023-01-17T00:40:31.534Z,1.91
2023-01-17T00:43:16.582Z,1.95
2023-01-17T00:46:02.926Z,1.92
2023-01-17T00:48:48.260Z,1.94
2023-01-17T00:51:36.090Z,1.92
2023-01-17T00:54:21.676Z,1.94
2023-01-17T00:57:07.419Z,1.93
2023-01-17T00:59:52.858Z,1.94
2023-01-17T01:02:38.648Z,1.95
2023-01-17T01:05:24.346Z,1.94
2023-01-17T01:08:11.769Z,1.94
2023-01-17T01:10:57.241Z,1.95
2023-01-17T01:13:44.140Z,1.96
2023-01-17T01:16:29.762Z,1.95
2023-01-17T01:19:16.056Z,1.93
2023-01-17T01:22:01.579Z,1.87
2023-01-17T01:24:49.071Z,1.91
2023-01-17T01:27:34.665Z,1.90
2023-01-17T01:30:20.380Z,1.87
2023-01-17T01:33:05.491Z,1.89
2023-01-17T01:35:33.968Z,1.92
2023-01-17T01:38:03.731Z,1.92
2023-01-17T01:40:33.313Z,1.93
2023-01-17T01:43:05.865Z,1.91
2023-01-17T01:45:34.398Z,1.87
2023-01-17T01:48:04.814Z,1.89
2023-01-17T01:50:34.337Z,1.86
2023-01-17T01:53:03.543Z,1.90
2023-01-17T01:55:34.615Z,1.91
2023-01-17T01:58:05.627Z,1.90
2023-01-17T02:00:35.656Z,1.91
2023-01-17T02:03:06.232Z,1.92
2023-01-17T02:05:35.087Z,1.88
2023-01-17T02:08:04.798Z,1.88
2023-01-17T02:10:35.781Z,1.88
2023-01-17T02:13:04.049Z,1.89
2023-01-17T02:15:34.051Z,1.88
2023-01-17T02:18:10.908Z,1.91
2023-01-17T02:20:58.754Z,1.92
2023-01-17T02:23:45.164Z,1.93
2023-01-17T02:26:35.673Z,1.91
2023-01-17T02:29:16.767Z,1.89
2023-01-17T02:31:48.741Z,1.92
2023-01-17T02:34:19.546Z,1.92
2023-01-17T02:36:52.048Z,1.95
2023-01-17T02:39:21.962Z,1.96
2023-01-17T02:41:53.721Z,1.96
2023-01-17T02:44:22.080Z,2.00
2023-01-17T02:46:52.392Z,1.96
2023-01-17T02:49:22.140Z,1.95
2023-01-17T02:52:01.729Z,1.97
2023-01-17T02:54:45.220Z,1.98
2023-01-17T02:57:19.548Z,1.96
2023-01-17T02:59:53.546Z,1.97
2023-01-17T03:02:28.947Z,1.95
2023-01-17T03:05:00.889Z,1.97
2023-01-17T03:07:30.537Z,1.99
2023-01-17T03:10:00.614Z,1.97
2023-01-17T03:12:29.841Z,1.96
2023-01-17T03:14:58.071Z,1.96
2023-01-17T03:17:30.725Z,1.98
2023-01-17T03:19:58.628Z,1.95
2023-01-17T03:22:26.937Z,2.01
2023-01-17T03:24:54.871Z,2.00
2023-01-17T03:27:23.079Z,1.99
2023-01-17T03:29:51.083Z,1.95
2023-01-17T03:32:19.351Z,1.96
2023-01-17T03:34:48.690Z,1.94
2023-01-17T03:37:17.056Z,1.97
2023-01-17T03:39:45.055Z,1.95
2023-01-17T03:42:13.508Z,1.92
2023-01-17T03:44:42.483Z,1.95
2023-01-17T03:47:12.339Z,1.97
2023-01-17T03:49:42.990Z,1.96
2023-01-17T03:52:12.674Z,2.02
2023-01-17T03:54:43.512Z,1.97
2023-01-17T03:57:11.680Z,1.96
2023-01-17T03:59:39.605Z,1.95
2023-01-17T04:02:07.919Z,1.98
2023-01-17T04:04:35.883Z,1.98
2023-01-17T04:07:04.164Z,1.98
2023-01-17T04:09:34.573Z,1.97
2023-01-17T04:12:05.365Z,1.99
2023-01-17T04:14:33.393Z,1.99
2023-01-17T04:17:02.651Z,1.98
2023-01-17T04:19:31.128Z,1.98
2023-01-17T04:21:59.514Z,1.97
2023-01-17T04:24:27.416Z,1.98
2023-01-17T04:26:57.049Z,2.00
2023-01-17T04:29:24.960Z,1.94
2023-01-17T04:31:53.223Z,1.95
2023-01-17T04:34:21.155Z,1.97
2023-01-17T04:36:49.610Z,1.98
2023-01-17T04:39:17.515Z,1.98
2023-01-17T04:41:45.678Z,1.94
2023-01-17T04:44:15.968Z,2.01
2023-01-17T04:46:46.125Z,2.01
2023-01-17T04:49:14.049Z,1.99
2023-01-17T04:51:42.503Z,2.00
2023-01-17T04:54:10.454Z,2.01
2023-01-17T04:56:38.792Z,2.00
2023-01-17T04:59:06.821Z,2.02
2023-01-17T05:01:36.531Z,2.06
2023-01-17T05:04:04.615Z,1.98
2023-01-17T05:06:35.725Z,2.02
2023-01-17T05:09:04.033Z,2.03
2023-01-17T05:11:34.840Z,2.05
2023-01-17T05:14:02.981Z,2.03
2023-01-17T05:16:31.430Z,2.07
2023-01-17T05:19:01.788Z,2.04
2023-01-17T05:21:30.253Z,2.04
2023-01-17T05:23:58.170Z,2.02
2023-01-17T05:26:26.489Z,2.08
2023-01-17T05:28:54.393Z,2.12
2023-01-17T05:31:22.680Z,2.09
2023-01-17T05:33:50.821Z,2.09
2023-01-17T05:36:21.210Z,2.12
2023-01-17T05:38:49.223Z,2.15
2023-01-17T05:41:18.876Z,2.15
2023-01-17T05:43:46.801Z,2.13
2023-01-17T05:46:16.193Z,2.12
2023-01-17T05:48:44.168Z,2.12
2023-01-17T05:51:12.386Z,2.13
2023-01-17T05:53:41.688Z,2.12
2023-01-17T05:56:09.859Z,2.15
2023-01-17T05:58:38.018Z,2.20
2023-01-17T06:01:06.309Z,2.19
2023-01-17T06:03:34.276Z,2.23
2023-01-17T06:06:02.446Z,2.22
2023-01-17T06:08:30.715Z,2.17
2023-01-17T06:11:00.918Z,2.19
2023-01-17T06:13:28.832Z,2.17
2023-01-17T06:16:02.941Z,2.17
2023-01-17T06:18:31.238Z,2.20
2023-01-17T06:20:59.529Z,2.21
2023-01-17T06:23:28.324Z,2.17
2023-01-17T06:25:56.543Z,2.14
2023-01-17T06:28:25.868Z,2.21
2023-01-17T06:30:54.189Z,2.23
2023-01-17T06:33:22.343Z,2.22
2023-01-17T06:35:50.929Z,2.17
2023-01-17T06:38:19.247Z,2.19
2023-01-17T06:40:47.812Z,2.19
2023-01-17T06:43:15.882Z,2.18
2023-01-17T06:45:45.524Z,2.23
2023-01-17T06:48:13.626Z,2.21
2023-01-17T06:50:42.040Z,2.26
2023-01-17T06:53:12.612Z,2.26
2023-01-17T06:55:42.724Z,2.30
2023-01-17T06:58:12.103Z,2.23
2023-01-17T07:00:41.092Z,2.23
2023-01-17T07:03:16.967Z,2.29
2023-01-17T07:05:45.188Z,2.28
2023-01-17T07:08:13.108Z,2.27
2023-01-17T07:10:41.504Z,2.28
2023-01-17T07:13:09.564Z,2.29
2023-01-17T07:15:38.035Z,2.33
2023-01-17T07:18:06.016Z,2.31
2023-01-17T07:20:35.624Z,2.30
2023-01-17T07:23:03.557Z,2.32
2023-01-17T07:25:31.779Z,2.32
2023-01-17T07:27:59.691Z,2.35
2023-01-17T07:30:27.935Z,2.37
2023-01-17T07:32:58.558Z,2.36
2023-01-17T07:35:27.274Z,2.37
2023-01-17T07:37:57.056Z,2.40
2023-01-17T07:40:25.537Z,2.42
2023-01-17T07:42:53.507Z,2.45
2023-01-17T07:45:22.018Z,2.45
2023-01-17T07:47:50.167Z,2.50
2023-01-17T07:50:18.544Z,2.50
2023-01-17T07:52:50.063Z,2.55
2023-01-17T07:55:20.395Z,2.58
2023-01-17T07:57:50.272Z,2.68
2023-01-17T08:00:19.538Z,2.72
2023-01-17T08:02:47.698Z,2.73
2023-01-17T08:05:16.193Z,2.78
2023-01-17T08:07:44.195Z,2.80
2023-01-17T08:10:18.007Z,2.85
2023-01-17T08:12:48.175Z,2.86
2023-01-17T08:15:17.598Z,2.81
2023-01-17T08:17:49.304Z,2.89
2023-01-17T08:20:17.774Z,2.95
2023-01-17T08:22:45.722Z,2.92
2023-01-17T08:25:14.274Z,2.98
2023-01-17T08:27:42.219Z,3.00
2023-01-17T08:30:12.805Z,2.98
2023-01-17T08:32:43.649Z,2.95
2023-01-17T08:35:12.171Z,2.96
2023-01-17T08:37:40.228Z,2.98
2023-01-17T08:40:09.277Z,3.08
2023-01-17T08:42:40.303Z,3.10
2023-01-17T08:45:09.447Z,3.13
2023-01-17T08:47:39.220Z,3.14
2023-01-17T08:50:08.007Z,3.21
2023-01-17T08:52:36.189Z,3.24
2023-01-17T08:55:05.888Z,3.28
2023-01-17T08:57:33.932Z,3.35
2023-01-17T09:00:02.237Z,3.37
2023-01-17T09:02:30.161Z,3.45
2023-01-17T09:05:00.749Z,3.45
2023-01-17T09:07:28.649Z,3.48
2023-01-17T09:09:56.863Z,3.47
2023-01-17T09:12:24.851Z,3.50
2023-01-17T09:14:55.270Z,3.45
2023-01-17T09:17:23.186Z,3.44
2023-01-17T09:19:52.460Z,3.51
2023-01-17T09:22:21.932Z,3.52
2023-01-17T09:24:50.135Z,3.47
2023-01-17T09:27:18.319Z,3.49
2023-01-17T09:29:46.519Z,3.51
2023-01-17T09:32:17.148Z,3.54
2023-01-17T09:34:45.407Z,3.61
2023-01-17T09:37:13.347Z,3.67
2023-01-17T09:39:43.080Z,3.75
2023-01-17T09:42:19.543Z,3.71
2023-01-17T09:44:49.158Z,3.72
2023-01-17T09:47:19.651Z,3.77
2023-01-17T09:49:48.494Z,3.76
2023-01-17T09:52:18.713Z,3.79
2023-01-17T09:54:49.597Z,3.83
2023-01-17T09:57:24.352Z,3.81
2023-01-17T10:00:02.864Z,3.74
2023-01-17T10:02:40.518Z,3.71
2023-01-17T10:05:33.507Z,3.71
2023-01-17T10:08:09.382Z,3.84
2023-01-17T10:10:42.689Z,3.88
2023-01-17T10:13:20.606Z,3.90
2023-01-17T10:16:03.784Z,3.94
2023-01-17T10:18:45.681Z,4.03
2023-01-17T10:21:16.367Z,4.04
2023-01-17T10:24:04.869Z,3.94
2023-01-17T10:26:35.245Z,3.89
2023-01-17T10:29:05.430Z,3.94
2023-01-17T10:31:38.118Z,3.99
2023-01-17T10:34:08.210Z,3.95
2023-01-17T10:36:39.975Z,3.98
2023-01-17T10:39:15.889Z,3.94
2023-01-17T10:41:48.042Z,4.04
2023-01-17T10:44:19.856Z,4.10
2023-01-17T10:46:49.186Z,4.15
2023-01-17T10:49:18.643Z,4.17
2023-01-17T10:52:00.336Z,4.15
2023-01-17T10:54:44.310Z,4.08
2023-01-17T10:57:16.479Z,4.07
2023-01-17T10:59:45.347Z,4.01
2023-01-17T11:02:20.020Z,4.05
2023-01-17T11:04:52.137Z,4.08
2023-01-17T11:07:22.521Z,4.15
2023-01-17T11:09:51.481Z,4.15
2023-01-17T11:12:28.531Z,4.12
2023-01-17T11:14:59.559Z,4.18
2023-01-17T11:17:30.115Z,4.21
2023-01-17T11:20:07.933Z,4.20
2023-01-17T11:22:36.539Z,4.41
2023-01-17T11:25:04.629Z,4.72
2023-01-17T11:27:35.005Z,4.92
2023-01-17T11:30:03.962Z,4.85
2023-01-17T11:32:33.110Z,4.73
2023-01-17T11:35:09.271Z,4.62
2023-01-17T11:37:38.015Z,4.56
2023-01-17T11:40:09.684Z,4.45
2023-01-17T11:42:39.620Z,4.35
2023-01-17T11:45:24.848Z,4.36
2023-01-17T11:48:05.587Z,4.48
2023-01-17T11:50:33.541Z,4.50
2023-01-17T11:53:09.000Z,4.58
2023-01-17T11:55:37.474Z,4.57
2023-01-17T11:58:07.175Z,4.45
2023-01-17T12:00:40.958Z,4.30
2023-01-17T12:03:15.340Z,4.28
2023-01-17T12:05:53.862Z,4.25
2023-01-17T12:08:30.398Z,4.17
2023-01-17T12:11:04.136Z,4.16
2023-01-17T12:14:00.597Z,4.17
2023-01-17T12:16:37.346Z,4.15
2023-01-17T12:19:22.402Z,4.14
2023-01-17T12:21:58.391Z,4.19
2023-01-17T12:24:35.083Z,4.22
2023-01-17T12:27:08.642Z,4.26
2023-01-17T12:29:47.753Z,4.27
2023-01-17T12:32:30.573Z,4.25
2023-01-17T12:35:01.951Z,4.27
2023-01-17T12:37:34.602Z,4.20
2023-01-17T12:40:08.217Z,4.23
2023-01-17T12:42:40.700Z,4.22
2023-01-17T12:45:13.498Z,4.24
2023-01-17T12:47:43.885Z,4.37
2023-01-17T12:50:20.673Z,4.52
2023-01-17T12:52:53.499Z,4.61
2023-01-17T12:55:26.550Z,4.67
2023-01-17T12:57:57.555Z,4.78
2023-01-17T13:00:29.790Z,4.74
2023-01-17T13:03:00.289Z,4.66
2023-01-17T13:05:31.924Z,4.59
2023-01-17T13:08:03.945Z,4.56
2023-01-17T13:10:35.444Z,4.44
2023-01-17T13:13:10.505Z,4.40
2023-01-17T13:15:40.959Z,4.42
2023-01-17T13:18:12.029Z,4.51
2023-01-17T13:20:50.510Z,4.57
2023-01-17T13:23:29.099Z,4.65
2023-01-17T13:25:58.800Z,4.60
2023-01-17T13:28:36.816Z,4.55
2023-01-17T13:31:22.638Z,4.49
2023-01-17T13:34:02.843Z,4.45
2023-01-17T13:36:40.030Z,4.33
2023-01-17T13:39:29.969Z,4.29
2023-01-17T13:42:09.955Z,4.26
2023-01-17T13:44:38.332Z,4.19
2023-01-17T13:47:08.191Z,4.14
2023-01-17T13:49:44.712Z,4.12
2023-01-17T13:52:28.562Z,4.10
2023-01-17T13:54:57.507Z,4.07
2023-01-17T13:57:39.953Z,4.06
2023-01-17T14:00:31.999Z,4.03
2023-01-17T14:03:00.280Z,3.97
2023-01-17T14:05:43.091Z,3.96
2023-01-17T14:08:17.029Z,3.97
2023-01-17T14:10:46.486Z,3.96
2023-01-17T14:13:32.972Z,3.99
2023-01-17T14:16:01.460Z,3.98
2023-01-17T14:18:33.102Z,3.99
2023-01-17T14:21:10.573Z,3.95
2023-01-17T14:23:56.473Z,3.91
2023-01-17T14:26:43.090Z,3.83
2023-01-17T14:29:30.007Z,3.72
2023-01-17T14:32:03.196Z,3.73
2023-01-17T14:34:31.672Z,3.65
2023-01-17T14:37:05.376Z,3.57
2023-01-17T14:39:44.022Z,3.44
2023-01-17T14:42:13.659Z,3.38
2023-01-17T14:44:41.968Z,3.40
2023-01-17T14:47:14.539Z,3.48
2023-01-17T14:49:42.826Z,3.50
2023-01-17T14:52:14.919Z,3.47
2023-01-17T14:54:50.742Z,3.47
2023-01-17T14:57:27.790Z,3.47
2023-01-17T15:00:16.753Z,3.41
2023-01-17T15:02:46.493Z,3.36
2023-01-17T15:05:16.317Z,3.38
2023-01-17T15:07:45.839Z,3.36
2023-01-17T15:10:15.811Z,3.27
2023-01-17T15:12:46.706Z,3.20
2023-01-17T15:15:27.887Z,3.09
2023-01-17T15:18:10.404Z,2.91
2023-01-17T15:20:39.278Z,2.77
2023-01-17T15:23:07.538Z,2.74
2023-01-17T15:25:36.055Z,2.71
2023-01-17T15:28:06.596Z,2.79
2023-01-17T15:30:35.490Z,2.87
2023-01-17T15:33:03.432Z,2.88
2023-01-17T15:35:33.015Z,2.86
2023-01-17T15:38:01.339Z,2.81
2023-01-17T15:40:31.269Z,2.83
2023-01-17T15:43:00.986Z,2.84
2023-01-17T15:45:30.312Z,2.81
2023-01-17T15:47:59.289Z,2.81
2023-01-17T15:50:30.249Z,2.72
2023-01-17T15:53:01.592Z,2.75
2023-01-17T15:55:33.051Z,2.78
2023-01-17T15:58:01.597Z,2.76
2023-01-17T16:00:37.808Z,2.71
2023-01-17T16:03:15.911Z,2.60
2023-01-17T16:05:44.417Z,2.53
2023-01-17T16:08:26.986Z,2.47
2023-01-17T16:10:58.173Z,2.46
2023-01-17T16:13:26.051Z,2.48
2023-01-17T16:15:54.398Z,2.43
2023-01-17T16:18:24.235Z,2.47
2023-01-17T16:20:56.667Z,2.42
2023-01-17T16:23:26.138Z,2.35
2023-01-17T16:25:55.412Z,2.28
2023-01-17T16:28:23.620Z,2.22
2023-01-17T16:30:54.042Z,2.02
2023-01-17T16:33:22.548Z,1.90
2023-01-17T16:35:51.555Z,1.69
2023-01-17T16:38:20.587Z,1.55
2023-01-17T16:40:50.329Z,1.50
2023-01-17T16:43:19.446Z,1.39
2023-01-17T16:45:48.576Z,1.33
2023-01-17T16:48:19.115Z,1.30
2023-01-17T16:50:50.670Z,1.35
2023-01-17T16:53:23.334Z,1.43
2023-01-17T16:55:57.083Z,1.58
2023-01-17T16:58:25.357Z,1.70
2023-01-17T17:00:55.514Z,1.82
2023-01-17T17:03:23.591Z,1.96
2023-01-17T17:05:58.930Z,2.04
2023-01-17T17:08:28.856Z,2.12
2023-01-17T17:11:07.151Z,2.20
2023-01-17T17:13:35.968Z,2.36
2023-01-17T17:16:09.881Z,2.47
2023-01-17T17:18:37.861Z,2.53
2023-01-17T17:21:08.299Z,2.57
2023-01-17T17:23:36.246Z,2.61
2023-01-17T17:26:06.280Z,2.67
2023-01-17T17:28:34.331Z,2.70
2023-01-17T17:31:03.964Z,2.78
2023-01-17T17:33:32.116Z,2.83
2023-01-17T17:36:04.049Z,2.87
2023-01-17T17:38:35.129Z,2.89
2023-01-17T17:41:10.887Z,2.91
2023-01-17T17:43:40.516Z,2.94
2023-01-17T17:46:09.227Z,2.95
2023-01-17T17:48:37.590Z,2.91
2023-01-17T17:51:06.314Z,2.83
2023-01-17T17:53:34.606Z,2.80
2023-01-17T17:56:06.821Z,2.82
2023-01-17T17:58:37.059Z,2.77
2023-01-17T18:01:06.058Z,2.78
2023-01-17T18:03:34.887Z,2.82
2023-01-17T18:06:04.054Z,2.85
2023-01-17T18:08:32.605Z,2.80
2023-01-17T18:11:01.664Z,2.72
2023-01-17T18:13:29.908Z,2.60
2023-01-17T18:16:04.740Z,2.37
2023-01-17T18:18:32.813Z,2.18
2023-01-17T18:21:13.350Z,2.05
2023-01-17T18:23:45.848Z,1.82
2023-01-17T18:26:16.849Z,1.66
2023-01-17T18:28:44.864Z,1.62
2023-01-17T18:31:14.552Z,1.55
2023-01-17T18:33:42.526Z,1.31
2023-01-17T18:36:12.154Z,1.07
2023-01-17T18:38:42.628Z,1.04
2023-01-17T18:41:11.870Z,1.04
2023-01-17T18:43:40.341Z,1.01
2023-01-17T18:46:10.792Z,0.99
2023-01-17T18:48:40.335Z,0.92
2023-01-17T18:51:09.508Z,0.85
2023-01-17T18:53:38.779Z,0.90
2023-01-17T18:56:08.399Z,0.86
2023-01-17T18:58:37.769Z,0.86
2023-01-17T19:01:10.273Z,0.82
2023-01-17T19:03:39.334Z,0.82
2023-01-17T19:06:12.783Z,0.71
2023-01-17T19:08:40.889Z,0.76
2023-01-17T19:11:09.490Z,0.79
2023-01-17T19:13:38.639Z,0.78
2023-01-17T19:16:08.228Z,0.75
2023-01-17T19:18:36.706Z,0.80
2023-01-17T19:21:05.889Z,0.79
2023-01-17T19:23:36.639Z,0.81
2023-01-17T19:26:06.063Z,0.84
2023-01-17T19:28:35.667Z,0.85
2023-01-17T19:31:04.356Z,0.84
2023-01-17T19:33:32.279Z,0.81
2023-01-17T19:36:01.157Z,0.80
2023-01-17T19:38:29.913Z,0.77
2023-01-17T19:41:07.325Z,0.75
2023-01-17T19:43:35.641Z,0.73
2023-01-17T19:46:03.878Z,0.78
2023-01-17T19:48:31.824Z,0.84
2023-01-17T19:51:06.114Z,0.95
2023-01-17T19:53:35.874Z,1.02
2023-01-17T19:56:10.716Z,1.08
2023-01-17T19:58:39.303Z,1.14
2023-01-17T20:01:08.970Z,1.17
2023-01-17T20:03:37.959Z,1.12
2023-01-17T20:06:07.037Z,1.09
2023-01-17T20:08:35.228Z,1.04
2023-01-17T20:11:04.608Z,0.98
2023-01-17T20:13:34.684Z,0.90
2023-01-17T20:16:03.422Z,0.87
2023-01-17T20:18:31.629Z,0.87
2023-01-17T20:21:03.495Z,0.84
2023-01-17T20:23:34.403Z,0.79
2023-01-17T20:26:04.781Z,0.79
2023-01-17T20:28:35.092Z,0.75
2023-01-17T20:31:07.322Z,0.73
2023-01-17T20:33:36.274Z,0.68
2023-01-17T20:36:10.582Z,0.58
2023-01-17T20:38:48.714Z,0.49
2023-01-17T20:41:17.965Z,0.43
2023-01-17T20:43:47.955Z,0.41
2023-01-17T20:46:16.602Z,0.53
2023-01-17T20:48:45.182Z,0.68
2023-01-17T20:51:13.720Z,0.71
2023-01-17T20:53:43.459Z,0.66
2023-01-17T20:56:15.068Z,0.68
2023-01-17T20:58:43.138Z,0.58
2023-01-17T21:01:13.662Z,0.52
2023-01-17T21:03:42.399Z,0.54
2023-01-17T21:06:11.957Z,0.45
2023-01-17T21:08:40.822Z,0.41
2023-01-17T21:11:09.764Z,0.35
2023-01-17T21:13:38.256Z,0.39
2023-01-17T21:16:08.164Z,0.33
2023-01-17T21:18:37.865Z,0.32
2023-01-17T21:21:08.027Z,0.36
2023-01-17T21:23:36.108Z,0.33
2023-01-17T21:26:05.112Z,0.02
2023-01-17T21:28:34.800Z,0.23
2023-01-17T21:31:16.804Z,0.18
2023-01-17T21:33:46.378Z,0.11
2023-01-17T21:36:15.036Z,0.08
2023-01-17T21:38:43.354Z,0.03
2023-01-17T21:41:11.535Z,-0.03
2023-01-17T21:43:39.642Z,-0.07
2023-01-17T21:46:08.345Z,-0.05
2023-01-17T21:48:36.332Z,-0.14
2023-01-17T21:51:07.452Z,-0.20
2023-01-17T21:53:36.549Z,-0.25
2023-01-17T21:56:22.928Z,-0.29
2023-01-17T21:58:54.125Z,-0.30
2023-01-17T22:01:23.408Z,-0.31
2023-01-17T22:03:52.291Z,-0.35
2023-01-17T22:06:25.432Z,-0.31
2023-01-17T22:08:53.475Z,-0.37
2023-01-17T22:11:23.376Z,-0.39
2023-01-17T22:13:52.115Z,-0.36
2023-01-17T22:16:21.494Z,-0.41
2023-01-17T22:18:49.526Z,-0.48
2023-01-17T22:21:19.142Z,-0.56
2023-01-17T22:23:49.387Z,-0.73
2023-01-17T22:26:18.055Z,-0.90
2023-01-17T22:28:46.354Z,-0.98
2023-01-17T22:31:16.440Z,-1.08
2023-01-17T22:33:45.504Z,-1.12
2023-01-17T22:36:15.038Z,-1.10
2023-01-17T22:38:43.552Z,-1.27
2023-01-17T22:41:18.957Z,-1.40
2023-01-17T22:43:48.148Z,-1.40
2023-01-17T22:46:18.317Z,-1.37
2023-01-17T22:48:46.279Z,-1.44
2023-01-17T22:51:16.021Z,-1.45
2023-01-17T22:53:44.705Z,-1.44
2023-01-17T22:56:14.995Z,-1.51
2023-01-17T22:58:44.890Z,-1.54
2023-01-17T23:01:13.934Z,-1.65
2023-01-17T23:03:42.832Z,-1.67
2023-01-17T23:06:12.143Z,-1.74
2023-01-17T23:08:41.652Z,-1.70
2023-01-17T23:11:40.811Z,-1.64
2023-01-17T23:14:10.360Z,-1.63
2023-01-17T23:16:56.501Z,-1.68
2023-01-17T23:19:24.851Z,-1.74
2023-01-17T23:22:11.865Z,-1.78
2023-01-17T23:24:43.119Z,-2.31
2023-01-17T23:27:31.639Z,-1.94
2023-01-17T23:29:59.583Z,-1.96
2023-01-17T23:32:27.883Z,-1.99
2023-01-17T23:34:55.809Z,-2.08
2023-01-17T23:37:48.153Z,-2.12
2023-01-17T23:40:16.209Z,-2.17
2023-01-17T23:43:03.458Z,-2.11
2023-01-17T23:45:31.310Z,-2.06
2023-01-17T23:47:59.480Z,-2.06
2023-01-17T23:50:27.333Z,-1.98
2023-01-17T23:52:55.879Z,-1.95
2023-01-17T23:55:24.248Z,-1.96
2023-01-17T23:57:55.008Z,-1.98
